sensor_id;sensor_type;location;lat;lon;timestamp;temperature;humidity
14257;DHT22;7212;53.254;6.456;2022-10-16T00:01:48;13.30;99.90
14257;DHT22;7212;53.254;6.456;2022-10-16T00:04:13;13.20;99.90
14257;DHT22;7212;53.254;6.456;2022-10-16T00:06:39;13.30;99.90
14257;DHT22;7212;53.254;6.456;2022-10-16T00:09:05;13.20;99.90
14257;DHT22;7212;53.254;6.456;2022-10-16T00:11:35;13.20;99.90
14257;DHT22;7212;53.254;6.456;2022-10-16T00:14:05;13.20;99.90
14257;DHT22;7212;53.254;6.456;2022-10-16T00:16:31;13.30;99.90
14257;DHT22;7212;53.254;6.456;2022-10-16T00:18:57;13.20;99.90
14257;DHT22;7212;53.254;6.456;2022-10-16T00:21:26;13.20;99.90
14257;DHT22;7212;53.254;6.456;2022-10-16T00:23:53;13.20;99.90
14257;DHT22;7212;53.254;6.456;2022-10-16T00:26:20;13.20;99.90
14257;DHT22;7212;53.254;6.456;2022-10-16T00:28:50;13.20;99.90
14257;DHT22;7212;53.254;6.456;2022-10-16T00:31:17;13.20;99.90
14257;DHT22;7212;53.254;6.456;2022-10-16T00:33:43;13.20;99.90
14257;DHT22;7212;53.254;6.456;2022-10-16T00:36:12;13.20;99.90
14257;DHT22;7212;53.254;6.456;2022-10-16T00:38:38;13.20;99.90
14257;DHT22;7212;53.254;6.456;2022-10-16T00:41:05;13.20;99.90
14257;DHT22;7212;53.254;6.456;2022-10-16T00:46:22;13.20;99.90
14257;DHT22;7212;53.254;6.456;2022-10-16T00:51:24;13.20;99.90
14257;DHT22;7212;53.254;6.456;2022-10-16T00:53:51;13.20;99.90
14257;DHT22;7212;53.254;6.456;2022-10-16T00:56:17;13.20;99.90
14257;DHT22;7212;53.254;6.456;2022-10-16T00:58:43;13.20;99.90
14257;DHT22;7212;53.254;6.456;2022-10-16T01:01:08;13.20;99.90
14257;DHT22;7212;53.254;6.456;2022-10-16T01:03:36;13.20;99.90
14257;DHT22;7212;53.254;6.456;2022-10-16T01:08:55;13.20;99.90
14257;DHT22;7212;53.254;6.456;2022-10-16T01:11:27;13.20;99.90
14257;DHT22;7212;53.254;6.456;2022-10-16T01:14:00;13.20;99.90
14257;DHT22;7212;53.254;6.456;2022-10-16T01:16:58;13.20;99.90
14257;DHT22;7212;53.254;6.456;2022-10-16T01:22:09;13.20;99.90
14257;DHT22;7212;53.254;6.456;2022-10-16T01:24:49;13.20;99.90
14257;DHT22;7212;53.254;6.456;2022-10-16T01:27:27;13.20;99.90
14257;DHT22;7212;53.254;6.456;2022-10-16T01:29:59;13.20;99.90
14257;DHT22;7212;53.254;6.456;2022-10-16T01:35:35;13.20;99.90
14257;DHT22;7212;53.254;6.456;2022-10-16T01:40:34;13.20;99.90
14257;DHT22;7212;53.254;6.456;2022-10-16T01:43:15;13.20;99.90
14257;DHT22;7212;53.254;6.456;2022-10-16T01:45:44;13.20;99.90
14257;DHT22;7212;53.254;6.456;2022-10-16T01:48:13;13.20;99.90
14257;DHT22;7212;53.254;6.456;2022-10-16T01:50:41;13.20;99.90
14257;DHT22;7212;53.254;6.456;2022-10-16T01:53:11;13.20;99.90
14257;DHT22;7212;53.254;6.456;2022-10-16T01:55:39;13.20;99.90
14257;DHT22;7212;53.254;6.456;2022-10-16T01:58:10;13.30;99.90
14257;DHT22;7212;53.254;6.456;2022-10-16T02:00:38;13.30;99.90
14257;DHT22;7212;53.254;6.456;2022-10-16T02:03:06;13.20;99.90
14257;DHT22;7212;53.254;6.456;2022-10-16T02:05:37;13.30;99.90
14257;DHT22;7212;53.254;6.456;2022-10-16T02:08:04;13.20;99.90
14257;DHT22;7212;53.254;6.456;2022-10-16T02:10:30;13.30;99.90
14257;DHT22;7212;53.254;6.456;2022-10-16T02:13:36;13.30;99.90
14257;DHT22;7212;53.254;6.456;2022-10-16T02:16:03;13.30;99.90
14257;DHT22;7212;53.254;6.456;2022-10-16T02:18:29;13.30;99.90
14257;DHT22;7212;53.254;6.456;2022-10-16T02:21:02;13.30;99.90
14257;DHT22;7212;53.254;6.456;2022-10-16T02:26:28;13.30;99.90
14257;DHT22;7212;53.254;6.456;2022-10-16T02:29:02;13.30;99.90
14257;DHT22;7212;53.254;6.456;2022-10-16T02:31:34;13.30;99.90
14257;DHT22;7212;53.254;6.456;2022-10-16T02:34:01;13.30;99.90
14257;DHT22;7212;53.254;6.456;2022-10-16T02:36:29;13.30;99.90
14257;DHT22;7212;53.254;6.456;2022-10-16T02:38:55;13.30;99.90
14257;DHT22;7212;53.254;6.456;2022-10-16T02:41:22;13.30;99.90
14257;DHT22;7212;53.254;6.456;2022-10-16T02:43:48;13.30;99.90
14257;DHT22;7212;53.254;6.456;2022-10-16T02:46:15;13.40;99.90
14257;DHT22;7212;53.254;6.456;2022-10-16T02:48:40;13.40;99.90
14257;DHT22;7212;53.254;6.456;2022-10-16T02:51:06;13.40;99.90
14257;DHT22;7212;53.254;6.456;2022-10-16T02:53:32;13.40;99.90
14257;DHT22;7212;53.254;6.456;2022-10-16T02:55:57;13.40;99.90
14257;DHT22;7212;53.254;6.456;2022-10-16T02:58:23;13.40;99.90
14257;DHT22;7212;53.254;6.456;2022-10-16T03:00:48;13.30;99.90
14257;DHT22;7212;53.254;6.456;2022-10-16T03:03:14;13.40;99.90
14257;DHT22;7212;53.254;6.456;2022-10-16T03:05:39;13.40;99.90
14257;DHT22;7212;53.254;6.456;2022-10-16T03:08:05;13.40;99.90
14257;DHT22;7212;53.254;6.456;2022-10-16T03:10:31;13.30;99.90
14257;DHT22;7212;53.254;6.456;2022-10-16T03:12:56;13.30;99.90
14257;DHT22;7212;53.254;6.456;2022-10-16T03:15:22;13.30;99.90
14257;DHT22;7212;53.254;6.456;2022-10-16T03:17:47;13.30;99.90
14257;DHT22;7212;53.254;6.456;2022-10-16T03:20:13;13.30;99.90
14257;DHT22;7212;53.254;6.456;2022-10-16T03:22:39;13.30;99.90
14257;DHT22;7212;53.254;6.456;2022-10-16T03:25:05;13.30;99.90
14257;DHT22;7212;53.254;6.456;2022-10-16T03:27:30;13.30;99.90
14257;DHT22;7212;53.254;6.456;2022-10-16T03:29:56;13.20;99.90
14257;DHT22;7212;53.254;6.456;2022-10-16T03:32:22;13.20;99.90
14257;DHT22;7212;53.254;6.456;2022-10-16T03:34:48;13.20;99.90
14257;DHT22;7212;53.254;6.456;2022-10-16T03:37:13;13.20;99.90
14257;DHT22;7212;53.254;6.456;2022-10-16T03:39:39;13.20;99.90
14257;DHT22;7212;53.254;6.456;2022-10-16T03:42:04;13.30;99.90
14257;DHT22;7212;53.254;6.456;2022-10-16T03:44:30;13.20;99.90
14257;DHT22;7212;53.254;6.456;2022-10-16T03:46:56;13.20;99.90
14257;DHT22;7212;53.254;6.456;2022-10-16T03:49:21;13.20;99.90
14257;DHT22;7212;53.254;6.456;2022-10-16T03:51:47;13.20;99.90
14257;DHT22;7212;53.254;6.456;2022-10-16T03:54:12;13.20;99.90
14257;DHT22;7212;53.254;6.456;2022-10-16T03:56:38;13.20;99.90
14257;DHT22;7212;53.254;6.456;2022-10-16T03:59:04;13.20;99.90
14257;DHT22;7212;53.254;6.456;2022-10-16T04:01:29;13.20;99.90
14257;DHT22;7212;53.254;6.456;2022-10-16T04:03:55;13.20;99.90
14257;DHT22;7212;53.254;6.456;2022-10-16T04:06:20;13.20;99.90
14257;DHT22;7212;53.254;6.456;2022-10-16T04:08:46;13.20;99.90
14257;DHT22;7212;53.254;6.456;2022-10-16T04:11:12;13.20;99.90
14257;DHT22;7212;53.254;6.456;2022-10-16T04:13:37;13.20;99.90
14257;DHT22;7212;53.254;6.456;2022-10-16T04:16:03;13.20;99.90
14257;DHT22;7212;53.254;6.456;2022-10-16T04:18:29;13.20;99.90
14257;DHT22;7212;53.254;6.456;2022-10-16T04:20:54;13.20;99.90
14257;DHT22;7212;53.254;6.456;2022-10-16T04:23:20;13.20;99.90
14257;DHT22;7212;53.254;6.456;2022-10-16T04:25:48;13.20;99.90
14257;DHT22;7212;53.254;6.456;2022-10-16T04:28:13;13.20;99.90
14257;DHT22;7212;53.254;6.456;2022-10-16T04:30:39;13.20;99.90
14257;DHT22;7212;53.254;6.456;2022-10-16T04:33:05;13.10;99.90
14257;DHT22;7212;53.254;6.456;2022-10-16T04:35:30;13.10;99.90
14257;DHT22;7212;53.254;6.456;2022-10-16T04:37:59;13.20;99.90
14257;DHT22;7212;53.254;6.456;2022-10-16T04:40:25;13.10;99.90
14257;DHT22;7212;53.254;6.456;2022-10-16T04:42:51;13.10;99.90
14257;DHT22;7212;53.254;6.456;2022-10-16T04:45:16;13.10;99.90
14257;DHT22;7212;53.254;6.456;2022-10-16T04:47:42;13.10;99.90
14257;DHT22;7212;53.254;6.456;2022-10-16T04:50:08;13.10;99.90
14257;DHT22;7212;53.254;6.456;2022-10-16T04:52:33;13.10;99.90
14257;DHT22;7212;53.254;6.456;2022-10-16T04:54:59;13.10;99.90
14257;DHT22;7212;53.254;6.456;2022-10-16T04:57:28;13.10;99.90
14257;DHT22;7212;53.254;6.456;2022-10-16T04:59:54;13.10;99.90
14257;DHT22;7212;53.254;6.456;2022-10-16T05:02:19;13.10;99.90
14257;DHT22;7212;53.254;6.456;2022-10-16T05:04:45;13.20;99.90
14257;DHT22;7212;53.254;6.456;2022-10-16T05:07:11;13.10;99.90
14257;DHT22;7212;53.254;6.456;2022-10-16T05:09:36;13.20;99.90
14257;DHT22;7212;53.254;6.456;2022-10-16T05:12:02;13.20;99.90
14257;DHT22;7212;53.254;6.456;2022-10-16T05:14:29;13.20;99.90
14257;DHT22;7212;53.254;6.456;2022-10-16T05:16:54;13.20;99.90
14257;DHT22;7212;53.254;6.456;2022-10-16T05:19:20;13.20;99.90
14257;DHT22;7212;53.254;6.456;2022-10-16T05:21:45;13.20;99.90
14257;DHT22;7212;53.254;6.456;2022-10-16T05:24:11;13.20;99.90
14257;DHT22;7212;53.254;6.456;2022-10-16T05:26:37;13.20;99.90
14257;DHT22;7212;53.254;6.456;2022-10-16T05:29:03;13.20;99.90
14257;DHT22;7212;53.254;6.456;2022-10-16T05:31:28;13.20;99.90
14257;DHT22;7212;53.254;6.456;2022-10-16T05:34:01;13.20;99.90
14257;DHT22;7212;53.254;6.456;2022-10-16T05:36:27;13.20;99.90
14257;DHT22;7212;53.254;6.456;2022-10-16T05:38:53;13.20;99.90
14257;DHT22;7212;53.254;6.456;2022-10-16T05:41:19;13.20;99.90
14257;DHT22;7212;53.254;6.456;2022-10-16T05:43:49;13.20;99.90
14257;DHT22;7212;53.254;6.456;2022-10-16T05:46:15;13.20;99.90
14257;DHT22;7212;53.254;6.456;2022-10-16T05:48:41;13.20;99.90
14257;DHT22;7212;53.254;6.456;2022-10-16T05:51:09;13.20;99.90
14257;DHT22;7212;53.254;6.456;2022-10-16T05:53:36;13.20;99.90
14257;DHT22;7212;53.254;6.456;2022-10-16T05:56:02;13.20;99.90
14257;DHT22;7212;53.254;6.456;2022-10-16T05:58:33;13.20;99.90
14257;DHT22;7212;53.254;6.456;2022-10-16T06:01:11;13.20;99.90
14257;DHT22;7212;53.254;6.456;2022-10-16T06:03:38;13.20;99.90
14257;DHT22;7212;53.254;6.456;2022-10-16T06:06:17;13.20;99.90
14257;DHT22;7212;53.254;6.456;2022-10-16T06:08:45;13.20;99.90
14257;DHT22;7212;53.254;6.456;2022-10-16T06:11:16;13.20;99.90
14257;DHT22;7212;53.254;6.456;2022-10-16T06:13:42;13.20;99.90
14257;DHT22;7212;53.254;6.456;2022-10-16T06:16:09;13.20;99.90
14257;DHT22;7212;53.254;6.456;2022-10-16T06:18:35;13.20;99.90
14257;DHT22;7212;53.254;6.456;2022-10-16T06:21:11;13.20;99.90
14257;DHT22;7212;53.254;6.456;2022-10-16T06:23:37;13.20;99.90
14257;DHT22;7212;53.254;6.456;2022-10-16T06:26:07;13.20;99.90
14257;DHT22;7212;53.254;6.456;2022-10-16T06:28:33;13.20;99.90
14257;DHT22;7212;53.254;6.456;2022-10-16T06:31:00;13.20;99.90
14257;DHT22;7212;53.254;6.456;2022-10-16T06:33:26;13.20;99.90
14257;DHT22;7212;53.254;6.456;2022-10-16T06:35:51;13.20;99.90
14257;DHT22;7212;53.254;6.456;2022-10-16T06:38:17;13.20;99.90
14257;DHT22;7212;53.254;6.456;2022-10-16T06:40:42;13.20;99.90
14257;DHT22;7212;53.254;6.456;2022-10-16T06:43:08;13.20;99.90
14257;DHT22;7212;53.254;6.456;2022-10-16T06:45:34;13.20;99.90
14257;DHT22;7212;53.254;6.456;2022-10-16T06:47:59;13.20;99.90
14257;DHT22;7212;53.254;6.456;2022-10-16T06:50:25;13.30;99.90
14257;DHT22;7212;53.254;6.456;2022-10-16T06:52:50;13.30;99.90
14257;DHT22;7212;53.254;6.456;2022-10-16T06:55:16;13.20;99.90
14257;DHT22;7212;53.254;6.456;2022-10-16T06:57:43;13.20;99.90
14257;DHT22;7212;53.254;6.456;2022-10-16T07:00:09;13.20;99.90
14257;DHT22;7212;53.254;6.456;2022-10-16T07:02:35;13.20;99.90
14257;DHT22;7212;53.254;6.456;2022-10-16T07:05:00;13.30;99.90
14257;DHT22;7212;53.254;6.456;2022-10-16T07:07:26;13.30;99.90
14257;DHT22;7212;53.254;6.456;2022-10-16T07:09:52;13.30;99.90
14257;DHT22;7212;53.254;6.456;2022-10-16T07:12:17;13.30;99.90
14257;DHT22;7212;53.254;6.456;2022-10-16T07:14:43;13.30;99.90
14257;DHT22;7212;53.254;6.456;2022-10-16T07:17:09;13.30;99.90
14257;DHT22;7212;53.254;6.456;2022-10-16T07:19:34;13.30;99.90
14257;DHT22;7212;53.254;6.456;2022-10-16T07:22:00;13.30;99.90
14257;DHT22;7212;53.254;6.456;2022-10-16T07:24:26;13.30;99.90
14257;DHT22;7212;53.254;6.456;2022-10-16T07:26:52;13.40;99.90
14257;DHT22;7212;53.254;6.456;2022-10-16T07:29:20;13.40;99.90
14257;DHT22;7212;53.254;6.456;2022-10-16T07:31:47;13.40;99.90
14257;DHT22;7212;53.254;6.456;2022-10-16T07:34:14;13.40;99.90
14257;DHT22;7212;53.254;6.456;2022-10-16T07:36:40;13.40;99.90
14257;DHT22;7212;53.254;6.456;2022-10-16T07:39:05;13.40;99.90
14257;DHT22;7212;53.254;6.456;2022-10-16T07:41:31;13.50;99.90
14257;DHT22;7212;53.254;6.456;2022-10-16T07:43:58;13.40;99.90
14257;DHT22;7212;53.254;6.456;2022-10-16T07:46:27;13.40;99.90
14257;DHT22;7212;53.254;6.456;2022-10-16T07:48:52;13.40;99.90
14257;DHT22;7212;53.254;6.456;2022-10-16T07:51:20;13.50;99.90
14257;DHT22;7212;53.254;6.456;2022-10-16T07:53:46;13.40;99.90
14257;DHT22;7212;53.254;6.456;2022-10-16T07:56:12;13.50;99.90
14257;DHT22;7212;53.254;6.456;2022-10-16T07:58:38;13.50;99.90
14257;DHT22;7212;53.254;6.456;2022-10-16T08:01:09;13.40;99.90
14257;DHT22;7212;53.254;6.456;2022-10-16T08:03:35;13.40;99.90
14257;DHT22;7212;53.254;6.456;2022-10-16T08:06:01;13.50;99.90
14257;DHT22;7212;53.254;6.456;2022-10-16T08:08:28;13.40;99.90
14257;DHT22;7212;53.254;6.456;2022-10-16T08:10:54;13.40;99.90
14257;DHT22;7212;53.254;6.456;2022-10-16T08:13:19;13.50;99.90
14257;DHT22;7212;53.254;6.456;2022-10-16T08:15:46;13.50;99.90
14257;DHT22;7212;53.254;6.456;2022-10-16T08:18:13;13.50;99.90
14257;DHT22;7212;53.254;6.456;2022-10-16T08:20:39;13.50;99.90
14257;DHT22;7212;53.254;6.456;2022-10-16T08:23:05;13.60;99.90
14257;DHT22;7212;53.254;6.456;2022-10-16T08:25:34;13.60;99.90
14257;DHT22;7212;53.254;6.456;2022-10-16T08:28:03;13.70;99.90
14257;DHT22;7212;53.254;6.456;2022-10-16T08:30:29;13.70;99.90
14257;DHT22;7212;53.254;6.456;2022-10-16T08:32:55;13.70;99.90
14257;DHT22;7212;53.254;6.456;2022-10-16T08:35:20;13.80;99.90
14257;DHT22;7212;53.254;6.456;2022-10-16T08:37:46;13.80;99.90
14257;DHT22;7212;53.254;6.456;2022-10-16T08:40:32;13.80;99.90
14257;DHT22;7212;53.254;6.456;2022-10-16T08:48:48;13.80;99.90
14257;DHT22;7212;53.254;6.456;2022-10-16T08:51:28;13.80;99.90
14257;DHT22;7212;53.254;6.456;2022-10-16T08:53:59;13.90;99.90
14257;DHT22;7212;53.254;6.456;2022-10-16T08:56:27;13.90;99.90
14257;DHT22;7212;53.254;6.456;2022-10-16T08:58:54;13.90;99.90
14257;DHT22;7212;53.254;6.456;2022-10-16T09:01:21;13.90;99.90
14257;DHT22;7212;53.254;6.456;2022-10-16T09:07:09;13.90;99.90
14257;DHT22;7212;53.254;6.456;2022-10-16T09:12:37;14.00;99.90
14257;DHT22;7212;53.254;6.456;2022-10-16T09:21:08;14.20;99.90
14257;DHT22;7212;53.254;6.456;2022-10-16T09:23:37;14.30;99.90
14257;DHT22;7212;53.254;6.456;2022-10-16T09:26:05;14.30;99.90
14257;DHT22;7212;53.254;6.456;2022-10-16T09:28:31;14.30;99.90
14257;DHT22;7212;53.254;6.456;2022-10-16T09:30:56;14.40;99.90
14257;DHT22;7212;53.254;6.456;2022-10-16T09:33:25;14.40;99.90
14257;DHT22;7212;53.254;6.456;2022-10-16T09:35:56;14.50;99.90
14257;DHT22;7212;53.254;6.456;2022-10-16T09:38:29;14.50;99.90
14257;DHT22;7212;53.254;6.456;2022-10-16T09:41:00;14.50;99.90
14257;DHT22;7212;53.254;6.456;2022-10-16T09:43:41;14.60;99.90
14257;DHT22;7212;53.254;6.456;2022-10-16T09:48:49;14.60;99.90
14257;DHT22;7212;53.254;6.456;2022-10-16T09:53:46;14.70;99.90
14257;DHT22;7212;53.254;6.456;2022-10-16T09:56:30;14.70;99.90
14257;DHT22;7212;53.254;6.456;2022-10-16T09:59:00;14.70;99.90
14257;DHT22;7212;53.254;6.456;2022-10-16T10:01:31;14.80;99.90
14257;DHT22;7212;53.254;6.456;2022-10-16T10:04:00;14.80;99.90
14257;DHT22;7212;53.254;6.456;2022-10-16T10:06:34;14.80;99.90
14257;DHT22;7212;53.254;6.456;2022-10-16T10:09:13;14.90;99.90
14257;DHT22;7212;53.254;6.456;2022-10-16T10:11:56;14.80;99.90
14257;DHT22;7212;53.254;6.456;2022-10-16T10:17:06;14.90;99.90
14257;DHT22;7212;53.254;6.456;2022-10-16T10:22:39;14.90;99.90
14257;DHT22;7212;53.254;6.456;2022-10-16T10:30:23;15.00;99.90
14257;DHT22;7212;53.254;6.456;2022-10-16T10:44:07;15.20;99.90
14257;DHT22;7212;53.254;6.456;2022-10-16T10:53:10;15.30;99.90
14257;DHT22;7212;53.254;6.456;2022-10-16T11:01:17;15.20;99.90
14257;DHT22;7212;53.254;6.456;2022-10-16T11:04:10;15.30;99.90
14257;DHT22;7212;53.254;6.456;2022-10-16T11:06:48;15.30;99.90
14257;DHT22;7212;53.254;6.456;2022-10-16T11:09:20;15.30;99.90
14257;DHT22;7212;53.254;6.456;2022-10-16T11:12:07;15.40;99.90
14257;DHT22;7212;53.254;6.456;2022-10-16T11:14:55;15.40;99.90
14257;DHT22;7212;53.254;6.456;2022-10-16T11:17:55;15.50;99.90
14257;DHT22;7212;53.254;6.456;2022-10-16T11:20:34;15.50;99.90
14257;DHT22;7212;53.254;6.456;2022-10-16T11:25:36;15.50;99.90
14257;DHT22;7212;53.254;6.456;2022-10-16T11:28:19;15.50;99.90
14257;DHT22;7212;53.254;6.456;2022-10-16T11:30:54;15.50;99.90
14257;DHT22;7212;53.254;6.456;2022-10-16T11:33:46;15.50;99.90
14257;DHT22;7212;53.254;6.456;2022-10-16T11:36:23;15.50;99.90
14257;DHT22;7212;53.254;6.456;2022-10-16T11:39:22;15.50;99.90
14257;DHT22;7212;53.254;6.456;2022-10-16T11:47:57;15.50;99.90
14257;DHT22;7212;53.254;6.456;2022-10-16T11:55:44;15.60;99.90
14257;DHT22;7212;53.254;6.456;2022-10-16T11:58:25;15.70;99.90
14257;DHT22;7212;53.254;6.456;2022-10-16T12:01:01;15.90;99.90
14257;DHT22;7212;53.254;6.456;2022-10-16T12:06:34;16.30;99.90
14257;DHT22;7212;53.254;6.456;2022-10-16T12:09:02;16.50;99.90
14257;DHT22;7212;53.254;6.456;2022-10-16T12:16:38;16.90;99.90
14257;DHT22;7212;53.254;6.456;2022-10-16T12:19:17;17.00;99.90
14257;DHT22;7212;53.254;6.456;2022-10-16T12:21:44;17.10;99.90
14257;DHT22;7212;53.254;6.456;2022-10-16T12:26:47;17.00;99.90
14257;DHT22;7212;53.254;6.456;2022-10-16T12:29:32;16.90;99.90
14257;DHT22;7212;53.254;6.456;2022-10-16T12:31:59;16.90;99.90
14257;DHT22;7212;53.254;6.456;2022-10-16T12:36:51;16.80;99.90
14257;DHT22;7212;53.254;6.456;2022-10-16T12:39:24;16.70;99.90
14257;DHT22;7212;53.254;6.456;2022-10-16T12:44:51;16.50;99.90
14257;DHT22;7212;53.254;6.456;2022-10-16T12:49:57;16.40;99.90
14257;DHT22;7212;53.254;6.456;2022-10-16T12:52:36;16.40;99.90
14257;DHT22;7212;53.254;6.456;2022-10-16T12:55:03;16.40;99.90
14257;DHT22;7212;53.254;6.456;2022-10-16T13:00:35;16.40;99.90
14257;DHT22;7212;53.254;6.456;2022-10-16T13:06:19;16.50;99.90
14257;DHT22;7212;53.254;6.456;2022-10-16T13:09:17;16.50;99.90
14257;DHT22;7212;53.254;6.456;2022-10-16T13:12:10;16.60;99.90
14257;DHT22;7212;53.254;6.456;2022-10-16T13:14:57;16.60;99.90
14257;DHT22;7212;53.254;6.456;2022-10-16T13:17:55;16.70;99.90
14257;DHT22;7212;53.254;6.456;2022-10-16T13:26:05;16.80;99.90
14257;DHT22;7212;53.254;6.456;2022-10-16T13:28:35;16.80;99.90
14257;DHT22;7212;53.254;6.456;2022-10-16T13:31:03;16.90;99.90
14257;DHT22;7212;53.254;6.456;2022-10-16T13:33:39;16.90;99.90
14257;DHT22;7212;53.254;6.456;2022-10-16T13:36:06;17.00;99.90
14257;DHT22;7212;53.254;6.456;2022-10-16T13:38:34;17.00;99.90
14257;DHT22;7212;53.254;6.456;2022-10-16T13:41:20;17.10;99.90
14257;DHT22;7212;53.254;6.456;2022-10-16T13:43:49;17.10;99.90
14257;DHT22;7212;53.254;6.456;2022-10-16T13:48:43;17.30;99.90
14257;DHT22;7212;53.254;6.456;2022-10-16T13:51:17;17.30;99.90
14257;DHT22;7212;53.254;6.456;2022-10-16T13:53:43;17.50;99.90
14257;DHT22;7212;53.254;6.456;2022-10-16T13:56:16;17.50;99.90
14257;DHT22;7212;53.254;6.456;2022-10-16T13:58:42;17.60;99.90
14257;DHT22;7212;53.254;6.456;2022-10-16T14:01:18;17.60;99.90
14257;DHT22;7212;53.254;6.456;2022-10-16T14:03:46;17.70;99.90
14257;DHT22;7212;53.254;6.456;2022-10-16T14:06:15;17.80;99.90
14257;DHT22;7212;53.254;6.456;2022-10-16T14:08:48;17.90;99.90
14257;DHT22;7212;53.254;6.456;2022-10-16T14:11:23;17.90;99.90
14257;DHT22;7212;53.254;6.456;2022-10-16T14:13:50;18.00;99.90
14257;DHT22;7212;53.254;6.456;2022-10-16T14:16:34;18.00;99.90
14257;DHT22;7212;53.254;6.456;2022-10-16T14:19:01;18.10;99.90
14257;DHT22;7212;53.254;6.456;2022-10-16T14:21:28;18.10;99.90
14257;DHT22;7212;53.254;6.456;2022-10-16T14:23:54;18.10;99.90
14257;DHT22;7212;53.254;6.456;2022-10-16T14:26:22;18.20;99.90
14257;DHT22;7212;53.254;6.456;2022-10-16T14:29:00;18.20;99.90
14257;DHT22;7212;53.254;6.456;2022-10-16T14:31:32;18.30;99.90
14257;DHT22;7212;53.254;6.456;2022-10-16T14:33:59;18.20;99.90
14257;DHT22;7212;53.254;6.456;2022-10-16T14:36:26;18.20;99.90
14257;DHT22;7212;53.254;6.456;2022-10-16T14:39:02;18.20;99.90
14257;DHT22;7212;53.254;6.456;2022-10-16T14:41:30;18.30;99.90
14257;DHT22;7212;53.254;6.456;2022-10-16T14:44:02;18.30;99.90
14257;DHT22;7212;53.254;6.456;2022-10-16T14:46:38;18.20;99.90
14257;DHT22;7212;53.254;6.456;2022-10-16T14:51:36;18.20;99.90
14257;DHT22;7212;53.254;6.456;2022-10-16T14:54:03;18.20;99.90
14257;DHT22;7212;53.254;6.456;2022-10-16T14:56:43;18.10;99.90
14257;DHT22;7212;53.254;6.456;2022-10-16T14:59:22;18.10;99.90
14257;DHT22;7212;53.254;6.456;2022-10-16T15:01:48;18.00;99.90
14257;DHT22;7212;53.254;6.456;2022-10-16T15:04:14;17.90;99.90
14257;DHT22;7212;53.254;6.456;2022-10-16T15:06:40;17.90;99.90
14257;DHT22;7212;53.254;6.456;2022-10-16T15:09:06;17.90;99.90
14257;DHT22;7212;53.254;6.456;2022-10-16T15:11:32;17.90;99.90
14257;DHT22;7212;53.254;6.456;2022-10-16T15:13:58;17.90;99.90
14257;DHT22;7212;53.254;6.456;2022-10-16T15:16:24;18.00;99.90
14257;DHT22;7212;53.254;6.456;2022-10-16T15:18:49;18.00;99.90
14257;DHT22;7212;53.254;6.456;2022-10-16T15:21:30;18.00;99.90
14257;DHT22;7212;53.254;6.456;2022-10-16T15:23:56;18.00;99.90
14257;DHT22;7212;53.254;6.456;2022-10-16T15:26:23;18.00;99.90
14257;DHT22;7212;53.254;6.456;2022-10-16T15:28:49;18.00;99.90
14257;DHT22;7212;53.254;6.456;2022-10-16T15:31:15;18.00;99.90
14257;DHT22;7212;53.254;6.456;2022-10-16T15:33:40;18.00;99.90
14257;DHT22;7212;53.254;6.456;2022-10-16T15:36:07;18.00;99.90
14257;DHT22;7212;53.254;6.456;2022-10-16T15:38:33;18.00;99.90
14257;DHT22;7212;53.254;6.456;2022-10-16T15:40:59;17.90;99.90
14257;DHT22;7212;53.254;6.456;2022-10-16T15:43:24;17.90;99.90
14257;DHT22;7212;53.254;6.456;2022-10-16T15:46:05;17.90;99.90
14257;DHT22;7212;53.254;6.456;2022-10-16T15:48:32;17.90;99.90
14257;DHT22;7212;53.254;6.456;2022-10-16T15:50:58;17.90;99.90
14257;DHT22;7212;53.254;6.456;2022-10-16T15:53:23;17.80;99.90
14257;DHT22;7212;53.254;6.456;2022-10-16T15:55:49;17.80;99.90
14257;DHT22;7212;53.254;6.456;2022-10-16T15:58:15;17.80;99.90
14257;DHT22;7212;53.254;6.456;2022-10-16T16:00:40;17.70;99.90
14257;DHT22;7212;53.254;6.456;2022-10-16T16:03:06;17.70;99.90
14257;DHT22;7212;53.254;6.456;2022-10-16T16:05:32;17.70;99.90
14257;DHT22;7212;53.254;6.456;2022-10-16T16:07:58;17.60;99.90
14257;DHT22;7212;53.254;6.456;2022-10-16T16:10:24;17.60;99.90
14257;DHT22;7212;53.254;6.456;2022-10-16T16:12:50;17.60;99.90
14257;DHT22;7212;53.254;6.456;2022-10-16T16:15:19;17.60;99.90
14257;DHT22;7212;53.254;6.456;2022-10-16T16:17:45;17.50;99.90
14257;DHT22;7212;53.254;6.456;2022-10-16T16:20:11;17.50;99.90
14257;DHT22;7212;53.254;6.456;2022-10-16T16:22:37;17.50;99.90
14257;DHT22;7212;53.254;6.456;2022-10-16T16:25:03;17.40;99.90
14257;DHT22;7212;53.254;6.456;2022-10-16T16:27:29;17.40;99.90
14257;DHT22;7212;53.254;6.456;2022-10-16T16:29:58;17.40;99.90
14257;DHT22;7212;53.254;6.456;2022-10-16T16:32:23;17.30;99.90
14257;DHT22;7212;53.254;6.456;2022-10-16T16:34:50;17.30;99.90
14257;DHT22;7212;53.254;6.456;2022-10-16T16:37:15;17.30;99.90
14257;DHT22;7212;53.254;6.456;2022-10-16T16:39:41;17.20;99.90
14257;DHT22;7212;53.254;6.456;2022-10-16T16:42:06;17.10;99.90
14257;DHT22;7212;53.254;6.456;2022-10-16T16:44:33;17.10;99.90
14257;DHT22;7212;53.254;6.456;2022-10-16T16:47:01;17.10;99.90
14257;DHT22;7212;53.254;6.456;2022-10-16T16:49:27;17.10;99.90
14257;DHT22;7212;53.254;6.456;2022-10-16T16:51:53;17.00;99.90
14257;DHT22;7212;53.254;6.456;2022-10-16T16:54:19;17.00;99.90
14257;DHT22;7212;53.254;6.456;2022-10-16T16:56:45;16.90;99.90
14257;DHT22;7212;53.254;6.456;2022-10-16T16:59:16;16.90;99.90
14257;DHT22;7212;53.254;6.456;2022-10-16T17:01:43;16.80;99.90
14257;DHT22;7212;53.254;6.456;2022-10-16T17:04:09;16.80;99.90
14257;DHT22;7212;53.254;6.456;2022-10-16T17:06:36;16.80;99.90
14257;DHT22;7212;53.254;6.456;2022-10-16T17:09:03;16.70;99.90
14257;DHT22;7212;53.254;6.456;2022-10-16T17:11:30;16.70;99.90
14257;DHT22;7212;53.254;6.456;2022-10-16T17:13:57;16.70;99.90
14257;DHT22;7212;53.254;6.456;2022-10-16T17:16:36;16.60;99.90
14257;DHT22;7212;53.254;6.456;2022-10-16T17:19:07;16.60;99.90
14257;DHT22;7212;53.254;6.456;2022-10-16T17:21:34;16.60;99.90
14257;DHT22;7212;53.254;6.456;2022-10-16T17:24:00;16.50;99.90
14257;DHT22;7212;53.254;6.456;2022-10-16T17:26:26;16.50;99.90
14257;DHT22;7212;53.254;6.456;2022-10-16T17:28:54;16.50;99.90
14257;DHT22;7212;53.254;6.456;2022-10-16T17:31:24;16.40;99.90
14257;DHT22;7212;53.254;6.456;2022-10-16T17:33:50;16.40;99.90
14257;DHT22;7212;53.254;6.456;2022-10-16T17:36:17;16.30;99.90
14257;DHT22;7212;53.254;6.456;2022-10-16T17:38:43;16.30;99.90
14257;DHT22;7212;53.254;6.456;2022-10-16T17:41:24;16.30;99.90
14257;DHT22;7212;53.254;6.456;2022-10-16T17:43:50;16.30;99.90
14257;DHT22;7212;53.254;6.456;2022-10-16T17:46:18;16.20;99.90
14257;DHT22;7212;53.254;6.456;2022-10-16T17:48:46;16.20;99.90
14257;DHT22;7212;53.254;6.456;2022-10-16T17:51:14;16.10;99.90
14257;DHT22;7212;53.254;6.456;2022-10-16T17:53:40;16.10;99.90
14257;DHT22;7212;53.254;6.456;2022-10-16T17:56:08;16.00;99.90
14257;DHT22;7212;53.254;6.456;2022-10-16T17:58:35;16.10;99.90
14257;DHT22;7212;53.254;6.456;2022-10-16T18:01:01;16.00;99.90
14257;DHT22;7212;53.254;6.456;2022-10-16T18:03:35;15.90;99.90